Latest Coastal Weather Observations for Browse Island

IDD60701

Issued at 6:11 pm CST Tuesday 27 September 2016 (issued every 10 minutes, with the page automatically refreshed every 10 minutes)

About coastal observations | Map of coastal stations | Coastal observations for NT | Marine services | Other Formats
Station Details ID: 200784 Name: BROWSE ISLAND Lat: -14.11 Lon: 123.55 Height: 3.7 m
Data from the previous 72 hours. | See also: Recent months at Browse Island
Date/Time
CST
Temp
°C
Wind Pressure Rain since
9am
mm
Weather Cloud Vis
km
Sea
Height
m
Swell
Dir  Spd
kts
Gust
kts
hPa Trend Height
m
Period
s
Dir
27/06:00pm 28.1 SSW 8 11 1009.1 - - - - - - - - -
27/05:30pm 27.8 SSW 9 11 1009.1 - - - - - - - - -
27/05:00pm 28.1 SW 8 9 1008.9 - - - - - - - - -
27/04:30pm 28.4 SSW 6 8 1008.9 - - - - - - - - -
27/04:00pm 28.5 SSW 6 8 1009.2 - - - - - - - - -
27/03:30pm 28.6 SW 7 7 1009.4 - - - - - - - - -
27/03:00pm 28.2 SW 8 10 1009.4 - - - - - - - - -
27/02:30pm 28.1 SSW 8 9 1009.6 - - - - - - - - -
27/02:00pm 28.0 SSW 7 9 1010.0 - - - - - - - - -
27/01:30pm 28.1 SW 7 8 1010.4 - - - - - - - - -
27/01:00pm 28.0 SSW 7 9 1010.7 - - - - - - - - -
27/12:30pm 27.7 SSW 8 9 1011.2 - - - - - - - - -
27/12:00pm 27.7 SSW 7 8 1011.5 - - - - - - - - -
27/11:30am 27.5 SSW 7 9 1011.9 - - - - - - - - -
27/11:00am 27.5 SSW 9 10 1012.1 - - - - - - - - -
27/10:30am 27.5 SSW 8 10 1012.3 - - - - - - - - -
27/10:00am 27.3 SSW 9 10 1012.2 - - - - - - - - -
27/09:30am 27.3 SSW 11 12 1012.0 - - - - - - - - -
27/09:00am 27.0 SSW 10 11 1011.8 - - - - - - - - -
27/08:30am 27.1 SSW 11 13 1011.5 - - - - - - - - -
27/08:00am 27.2 SSW 11 13 1011.3 - - - - - - - - -
27/07:30am 26.8 SSW 10 12 1011.0 - - - - - - - - -
27/07:00am 26.7 SSW 11 13 1010.9 - - - - - - - - -
27/06:30am 26.7 SSW 12 14 1010.7 - - - - - - - - -
27/06:00am 26.7 SSW 12 14 1010.5 - - - - - - - - -
27/05:30am 26.7 SSW 13 14 1010.1 - - - - - - - - -
27/05:00am 26.6 SSW 12 15 1010.0 - - - - - - - - -
27/04:30am 26.5 SSW 13 15 1009.9 - - - - - - - - -
27/04:00am 26.8 SSW 14 16 1009.8 - - - - - - - - -
27/03:30am 27.1 SW 14 16 1009.7 - - - - - - - - -
27/03:00am 27.1 SW 15 18 1009.6 - - - - - - - - -
27/02:30am 27.0 SW 15 17 1009.8 - - - - - - - - -
27/02:00am 27.0 WSW 14 15 1010.2 - - - - - - - - -
27/01:30am 27.0 WSW 15 18 1010.3 - - - - - - - - -
27/01:00am 26.9 WSW 14 16 1010.8 - - - - - - - - -
27/12:30am 27.3 SW 13 15 1011.4 - - - - - - - - -
27/12:00am 27.0 SW 12 14 1011.8 - - - - - - - - -
 
Date/Time
CST
Temp
°C
Wind Pressure Rain since
9am
mm
Weather Cloud Vis
km
Sea
Height
m
Swell
Dir  Spd
kts
Gust
kts
hPa Trend Height
m
Period
s
Dir
26/11:30pm 27.0 SW 11 13 1011.8 - - - - - - - - -
26/11:00pm 27.2 SW 11 12 1011.9 - - - - - - - - -
26/10:30pm 27.2 SW 10 11 1012.0 - - - - - - - - -
26/10:00pm 27.0 SW 11 13 1011.8 - - - - - - - - -
26/09:30pm 27.0 SW 10 13 1011.5 - - - - - - - - -
26/09:00pm 27.1 SW 8 9 1011.1 - - - - - - - - -
26/08:30pm 27.0 SSW 9 11 1010.7 - - - - - - - - -
26/08:00pm 27.0 SSW 9 11 1010.5 - - - - - - - - -
26/07:30pm 27.3 SSW 11 13 1010.2 - - - - - - - - -
26/07:00pm 27.2 SSW 11 13 1009.9 - - - - - - - - -
26/06:30pm 27.5 SSW 12 14 1009.5 - - - - - - - - -
26/06:00pm 27.2 SSW 13 15 1009.1 - - - - - - - - -
26/05:30pm 27.3 SSW 10 12 1009.0 - - - - - - - - -
26/05:00pm 27.2 SSW 11 13 1008.8 - - - - - - - - -
26/04:30pm 27.2 SSW 12 14 1008.8 - - - - - - - - -
26/04:00pm 27.7 SSW 13 15 1008.7 - - - - - - - - -
26/03:30pm 27.3 SSW 14 16 1008.8 - - - - - - - - -
26/03:00pm 27.2 SSW 14 16 1008.9 - - - - - - - - -
26/02:30pm 27.3 SSW 12 14 1009.2 - - - - - - - - -
26/02:00pm 27.7 SSW 12 14 1009.6 - - - - - - - - -
26/01:30pm 27.3 SSW 11 13 1009.9 - - - - - - - - -
26/01:00pm 27.3 SSW 11 13 1010.2 - - - - - - - - -
26/12:30pm 27.4 SSW 10 11 1010.4 - - - - - - - - -
26/12:00pm 27.3 S 9 11 1010.7 - - - - - - - - -
26/11:30am 27.4 S 10 12 1011.1 - - - - - - - - -
26/11:00am 27.2 SSW 10 11 1011.4 - - - - - - - - -
26/10:30am 27.3 SSW 11 13 1011.3 - - - - - - - - -
26/10:00am 27.0 SSW 11 13 1011.2 - - - - - - - - -
26/09:30am 27.1 SSW 11 13 1011.1 - - - - - - - - -
26/09:00am 27.2 SSW 10 11 1010.8 - - - - - - - - -
26/08:30am 26.9 SSW 10 11 1010.4 - - - - - - - - -
26/08:00am 27.1 SSW 11 13 1010.1 - - - - - - - - -
26/07:30am 26.9 SW 10 12 1009.8 - - - - - - - - -
26/07:00am 26.8 SSW 9 11 1009.6 - - - - - - - - -
26/06:30am 26.9 SW 8 9 1009.3 - - - - - - - - -
26/06:00am 26.8 SW 9 11 1009.0 - - - - - - - - -
26/05:30am 26.9 SW 10 13 1008.6 - - - - - - - - -
26/05:00am 27.1 SW 11 13 1008.5 - - - - - - - - -
26/04:30am 27.0 SW 12 14 1008.5 - - - - - - - - -
26/04:00am 27.2 SW 13 15 1008.5 - - - - - - - - -
26/03:30am 27.0 SW 13 15 1008.6 - - - - - - - - -
26/03:00am 27.2 SW 14 15 1008.8 - - - - - - - - -
26/02:30am 27.2 SW 13 16 1009.0 - - - - - - - - -
26/02:00am 27.5 SW 12 14 1009.2 - - - - - - - - -
26/01:30am 27.3 SW 13 14 1009.6 - - - - - - - - -
26/01:00am 27.3 SW 13 15 1010.1 - - - - - - - - -
26/12:30am 27.5 SW 13 15 1010.2 - - - - - - - - -
26/12:00am 27.4 SW 13 15 1010.3 - - - - - - - - -
 
Date/Time
CST
Temp
°C
Wind Pressure Rain since
9am
mm
Weather Cloud Vis
km
Sea
Height
m
Swell
Dir  Spd
kts
Gust
kts
hPa Trend Height
m
Period
s
Dir
25/11:30pm 27.5 SW 11 13 1010.5 - - - - - - - - -
25/11:00pm 27.3 SW 12 14 1010.6 - - - - - - - - -
25/10:30pm 27.3 SW 11 13 1010.4 - - - - - - - - -
25/10:00pm 27.3 SW 13 14 1010.4 - - - - - - - - -
25/09:30pm 27.5 SSW 12 13 1010.3 - - - - - - - - -
25/09:00pm 27.5 SW 12 14 1010.1 - - - - - - - - -
25/08:30pm 27.6 SW 11 13 1009.8 - - - - - - - - -
25/08:00pm 27.5 SW 11 12 1009.5 - - - - - - - - -
25/07:30pm 27.5 SW 10 12 1009.1 - - - - - - - - -
25/07:00pm 27.6 SW 10 12 1008.8 - - - - - - - - -
25/06:30pm 27.7 SW 10 11 1008.5 - - - - - - - - -
25/06:00pm 27.7 SW 11 12 1008.3 - - - - - - - - -
25/05:30pm 28.0 SW 11 13 1008.1 - - - - - - - - -
25/05:00pm 27.9 SW 10 11 1008.0 - - - - - - - - -
25/04:30pm 28.0 SW 9 11 1008.1 - - - - - - - - -
25/04:00pm 27.9 SW 10 11 1008.2 - - - - - - - - -
25/03:30pm 28.0 SW 10 11 1008.5 - - - - - - - - -
25/03:00pm 27.8 SW 9 11 1008.9 - - - - - - - - -
25/02:30pm 28.1 SW 9 11 1009.2 - - - - - - - - -
25/02:00pm 28.3 SW 10 11 1009.5 - - - - - - - - -
25/01:30pm 27.8 SW 9 11 1010.0 - - - - - - - - -
25/01:00pm 27.8 SW 10 12 1010.4 - - - - - - - - -
25/12:30pm 27.8 SW 11 13 1010.6 - - - - - - - - -
25/12:00pm 27.6 SW 9 11 1011.2 - - - - - - - - -
25/11:30am 27.9 SW 9 11 1011.7 - - - - - - - - -
25/11:00am 27.3 SW 10 11 1011.8 - - - - - - - - -
25/10:30am 27.2 SW 10 13 1011.8 - - - - - - - - -
25/10:00am 27.2 SW 8 9 1011.7 - - - - - - - - -
25/09:30am 27.2 SW 7 8 1011.6 - - - - - - - - -
25/09:00am 27.1 SSW 6 7 1011.4 - - - - - - - - -
25/08:30am 26.8 SSW 7 8 1011.0 - - - - - - - - -
25/08:00am 26.7 SSW 6 8 1010.8 - - - - - - - - -
25/07:30am 26.8 SSW 8 9 1010.3 - - - - - - - - -
25/07:00am 26.7 SSW 9 11 1009.8 - - - - - - - - -
25/06:30am 26.7 SSW 10 12 1009.3 - - - - - - - - -
25/06:00am 26.9 SSW 12 14 1009.0 - - - - - - - - -
25/05:30am 27.1 SW 13 15 1008.7 - - - - - - - - -
25/05:00am 26.8 SW 15 17 1008.4 - - - - - - - - -
25/04:30am 26.8 SW 14 16 1008.3 - - - - - - - - -
25/04:00am 27.0 SW 16 17 1008.2 - - - - - - - - -
25/03:30am 26.9 WSW 16 18 1008.2 - - - - - - - - -
25/03:00am 27.0 WSW 16 19 1008.4 - - - - - - - - -
25/02:30am 27.1 WSW 14 16 1008.9 - - - - - - - - -
25/02:00am 26.9 SW 14 16 1008.9 - - - - - - - - -
25/01:30am 27.0 SW 12 14 1009.3 - - - - - - - - -
25/01:00am 26.9 SW 11 13 1009.4 - - - - - - - - -
25/12:30am 26.9 SW 11 13 1009.7 - - - - - - - - -
25/12:00am 26.9 SW 10 11 1009.9 - - - - - - - - -
 
Date/Time
CST
Temp
°C
Wind Pressure Rain since
9am
mm
Weather Cloud Vis
km
Sea
Height
m
Swell
Dir  Spd
kts
Gust
kts
hPa Trend Height
m
Period
s
Dir
24/11:30pm 26.9 SW 10 11 1010.1 - - - - - - - - -
24/11:00pm 26.9 SW 9 11 1010.2 - - - - - - - - -
24/10:30pm 27.2 SW 9 10 1010.2 - - - - - - - - -
24/10:00pm 27.2 SW 9 10 1010.3 - - - - - - - - -
24/09:30pm 27.1 SW 9 11 1010.1 - - - - - - - - -
24/09:00pm 27.2 SSW 9 11 1009.8 - - - - - - - - -
24/08:30pm 27.4 SSW 10 13 1009.5 - - - - - - - - -
24/08:00pm 27.3 SW 10 13 1009.2 - - - - - - - - -

Other Formats:

Comma delimited format used in spreadsheet applications
http://www.bom.gov.au/fwo/IDD60701/IDD60701.94103.axf

JavaScript Object Notation format (JSON) in row-major order
http://www.bom.gov.au/fwo/IDD60701/IDD60701.94103.json